sensor_id;sensor_type;location;lat;lon;timestamp;P1;P2;P0
67376;PMS7003;54261;46.086;6.588;2023-02-15T00:02:55;4.50;2.50;1.75
67376;PMS7003;54261;46.086;6.588;2023-02-15T00:07:57;3.50;3.50;2.50
67376;PMS7003;54261;46.086;6.588;2023-02-15T00:12:59;4.25;3.00;3.00
67376;PMS7003;54261;46.086;6.588;2023-02-15T00:18:01;4.50;4.50;2.00
67376;PMS7003;54261;46.086;6.588;2023-02-15T00:23:03;2.00;2.00;1.75
67376;PMS7003;54261;46.086;6.588;2023-02-15T00:28:05;2.75;2.75;2.00
67376;PMS7003;54261;46.086;6.588;2023-02-15T00:33:08;2.50;2.50;2.00
67376;PMS7003;54261;46.086;6.588;2023-02-15T00:38:10;3.00;2.00;2.00
67376;PMS7003;54261;46.086;6.588;2023-02-15T00:43:12;1.00;1.00;1.00
67376;PMS7003;54261;46.086;6.588;2023-02-15T00:48:16;0.00;0.00;0.00
67376;PMS7003;54261;46.086;6.588;2023-02-15T00:53:18;2.00;1.00;0.25
67376;PMS7003;54261;46.086;6.588;2023-02-15T00:58:20;1.25;1.25;1.00
67376;PMS7003;54261;46.086;6.588;2023-02-15T01:03:22;0.00;0.00;0.00
67376;PMS7003;54261;46.086;6.588;2023-02-15T01:08:24;4.50;2.00;2.00
67376;PMS7003;54261;46.086;6.588;2023-02-15T01:13:26;1.75;0.25;0.25
67376;PMS7003;54261;46.086;6.588;2023-02-15T01:18:28;1.00;1.00;0.00
67376;PMS7003;54261;46.086;6.588;2023-02-15T01:23:30;5.75;2.75;1.75
67376;PMS7003;54261;46.086;6.588;2023-02-15T01:28:34;2.00;1.00;1.00
67376;PMS7003;54261;46.086;6.588;2023-02-15T01:33:36;6.50;3.25;1.75
67376;PMS7003;54261;46.086;6.588;2023-02-15T01:38:39;11.25;10.00;6.25
67376;PMS7003;54261;46.086;6.588;2023-02-15T01:43:45;2.00;1.25;1.00
67376;PMS7003;54261;46.086;6.588;2023-02-15T01:48:51;1.50;1.50;1.00
67376;PMS7003;54261;46.086;6.588;2023-02-15T01:54:03;1.00;1.00;1.00
67376;PMS7003;54261;46.086;6.588;2023-02-15T01:59:13;1.00;1.00;1.00
67376;PMS7003;54261;46.086;6.588;2023-02-15T02:04:24;1.50;1.50;1.00
67376;PMS7003;54261;46.086;6.588;2023-02-15T02:09:36;1.75;1.75;1.00
67376;PMS7003;54261;46.086;6.588;2023-02-15T02:14:39;1.00;1.00;0.75
67376;PMS7003;54261;46.086;6.588;2023-02-15T02:41:32;3.00;2.25;0.75
67376;PMS7003;54261;46.086;6.588;2023-02-15T02:46:37;0.00;0.00;0.00
67376;PMS7003;54261;46.086;6.588;2023-02-15T02:51:58;3.00;2.00;1.00
67376;PMS7003;54261;46.086;6.588;2023-02-15T02:57:06;1.50;1.50;1.00
67376;PMS7003;54261;46.086;6.588;2023-02-15T03:02:13;1.00;1.00;1.00
67376;PMS7003;54261;46.086;6.588;2023-02-15T03:07:30;2.00;2.00;1.00
67376;PMS7003;54261;46.086;6.588;2023-02-15T03:12:36;0.00;0.00;0.00
67376;PMS7003;54261;46.086;6.588;2023-02-15T03:17:43;1.00;1.00;1.00
67376;PMS7003;54261;46.086;6.588;2023-02-15T03:22:54;0.00;0.00;0.00
67376;PMS7003;54261;46.086;6.588;2023-02-15T03:28:02;1.00;1.00;1.00
67376;PMS7003;54261;46.086;6.588;2023-02-15T03:33:08;1.25;1.25;1.00
67376;PMS7003;54261;46.086;6.588;2023-02-15T03:38:12;2.00;1.00;0.75
67376;PMS7003;54261;46.086;6.588;2023-02-15T03:43:31;3.00;2.00;2.00
67376;PMS7003;54261;46.086;6.588;2023-02-15T03:48:38;1.50;1.50;1.00
67376;PMS7003;54261;46.086;6.588;2023-02-15T03:53:44;1.25;1.25;1.00
67376;PMS7003;54261;46.086;6.588;2023-02-15T03:58:48;1.00;1.00;1.00
67376;PMS7003;54261;46.086;6.588;2023-02-15T04:04:11;1.25;1.25;1.00
67376;PMS7003;54261;46.086;6.588;2023-02-15T04:09:18;1.50;0.75;0.75
67376;PMS7003;54261;46.086;6.588;2023-02-15T04:14:38;0.50;0.00;0.00
67376;PMS7003;54261;46.086;6.588;2023-02-15T04:19:58;0.00;0.00;0.00
67376;PMS7003;54261;46.086;6.588;2023-02-15T04:25:18;0.00;0.00;0.00
67376;PMS7003;54261;46.086;6.588;2023-02-15T04:30:22;0.00;0.00;0.00
67376;PMS7003;54261;46.086;6.588;2023-02-15T04:35:25;1.00;0.00;0.00
67376;PMS7003;54261;46.086;6.588;2023-02-15T04:40:27;0.00;0.00;0.00
67376;PMS7003;54261;46.086;6.588;2023-02-15T04:45:29;0.00;0.00;0.00
67376;PMS7003;54261;46.086;6.588;2023-02-15T04:50:31;0.25;0.00;0.00
67376;PMS7003;54261;46.086;6.588;2023-02-15T04:55:33;0.00;0.00;0.00
67376;PMS7003;54261;46.086;6.588;2023-02-15T05:00:34;0.00;0.00;0.00
67376;PMS7003;54261;46.086;6.588;2023-02-15T05:05:36;0.00;0.00;0.00
67376;PMS7003;54261;46.086;6.588;2023-02-15T05:10:38;0.00;0.00;0.00
67376;PMS7003;54261;46.086;6.588;2023-02-15T05:15:40;4.25;3.00;1.00
67376;PMS7003;54261;46.086;6.588;2023-02-15T05:20:45;1.00;1.00;0.00
67376;PMS7003;54261;46.086;6.588;2023-02-15T05:25:47;0.00;0.00;0.00
67376;PMS7003;54261;46.086;6.588;2023-02-15T05:31:17;0.00;0.00;0.00
67376;PMS7003;54261;46.086;6.588;2023-02-15T05:36:21;0.50;0.00;0.00
67376;PMS7003;54261;46.086;6.588;2023-02-15T05:41:23;0.00;0.00;0.00
67376;PMS7003;54261;46.086;6.588;2023-02-15T05:46:25;0.00;0.00;0.00
67376;PMS7003;54261;46.086;6.588;2023-02-15T05:51:27;1.00;1.00;0.00
67376;PMS7003;54261;46.086;6.588;2023-02-15T05:56:29;0.00;0.00;0.00
67376;PMS7003;54261;46.086;6.588;2023-02-15T06:01:32;1.00;1.00;0.75
67376;PMS7003;54261;46.086;6.588;2023-02-15T06:06:34;1.00;0.00;0.00
67376;PMS7003;54261;46.086;6.588;2023-02-15T06:11:36;0.00;0.00;0.00
67376;PMS7003;54261;46.086;6.588;2023-02-15T06:16:37;1.00;0.00;0.00
67376;PMS7003;54261;46.086;6.588;2023-02-15T06:21:39;0.75;0.75;0.75
67376;PMS7003;54261;46.086;6.588;2023-02-15T06:26:41;0.00;0.00;0.00
67376;PMS7003;54261;46.086;6.588;2023-02-15T06:31:43;0.75;0.75;0.00
67376;PMS7003;54261;46.086;6.588;2023-02-15T06:36:45;0.00;0.00;0.00
67376;PMS7003;54261;46.086;6.588;2023-02-15T06:41:47;1.75;1.00;0.00
67376;PMS7003;54261;46.086;6.588;2023-02-15T06:46:49;0.75;0.75;0.00
67376;PMS7003;54261;46.086;6.588;2023-02-15T06:51:51;0.00;0.00;0.00
67376;PMS7003;54261;46.086;6.588;2023-02-15T06:56:53;0.00;0.00;0.00
67376;PMS7003;54261;46.086;6.588;2023-02-15T07:01:55;1.00;1.00;1.00
67376;PMS7003;54261;46.086;6.588;2023-02-15T07:06:57;0.00;0.00;0.00
67376;PMS7003;54261;46.086;6.588;2023-02-15T07:11:58;0.00;0.00;0.00
67376;PMS7003;54261;46.086;6.588;2023-02-15T07:17:19;0.00;0.00;0.00
67376;PMS7003;54261;46.086;6.588;2023-02-15T07:22:36;1.00;1.00;0.00
67376;PMS7003;54261;46.086;6.588;2023-02-15T07:27:39;1.75;1.00;0.50
67376;PMS7003;54261;46.086;6.588;2023-02-15T07:32:41;2.00;2.00;2.00
67376;PMS7003;54261;46.086;6.588;2023-02-15T07:38:05;1.50;1.50;0.50
67376;PMS7003;54261;46.086;6.588;2023-02-15T07:43:07;1.00;1.00;0.25
67376;PMS7003;54261;46.086;6.588;2023-02-15T07:48:09;0.00;0.00;0.00
67376;PMS7003;54261;46.086;6.588;2023-02-15T07:53:11;0.00;0.00;0.00
67376;PMS7003;54261;46.086;6.588;2023-02-15T07:58:13;0.00;0.00;0.00
67376;PMS7003;54261;46.086;6.588;2023-02-15T08:03:15;2.25;1.00;0.00
67376;PMS7003;54261;46.086;6.588;2023-02-15T08:08:17;0.00;0.00;0.00
67376;PMS7003;54261;46.086;6.588;2023-02-15T08:13:39;1.00;1.00;0.00
67376;PMS7003;54261;46.086;6.588;2023-02-15T08:18:55;1.50;1.00;0.75
67376;PMS7003;54261;46.086;6.588;2023-02-15T08:23:59;1.00;1.00;0.50
67376;PMS7003;54261;46.086;6.588;2023-02-15T08:29:01;0.00;0.00;0.00
67376;PMS7003;54261;46.086;6.588;2023-02-15T08:34:04;0.75;0.75;0.00
67376;PMS7003;54261;46.086;6.588;2023-02-15T08:39:07;2.00;0.00;0.00
67376;PMS7003;54261;46.086;6.588;2023-02-15T08:44:09;0.00;0.00;0.00
67376;PMS7003;54261;46.086;6.588;2023-02-15T08:49:13;0.00;0.00;0.00
67376;PMS7003;54261;46.086;6.588;2023-02-15T08:54:18;15.75;13.50;12.00
67376;PMS7003;54261;46.086;6.588;2023-02-15T08:59:22;5.50;5.50;2.75
67376;PMS7003;54261;46.086;6.588;2023-02-15T09:04:24;2.00;1.00;0.00
67376;PMS7003;54261;46.086;6.588;2023-02-15T09:09:26;1.75;1.75;1.00
67376;PMS7003;54261;46.086;6.588;2023-02-15T09:14:28;1.00;0.00;0.00
67376;PMS7003;54261;46.086;6.588;2023-02-15T09:19:30;2.75;2.75;1.00
67376;PMS7003;54261;46.086;6.588;2023-02-15T09:24:32;2.75;2.75;1.50
67376;PMS7003;54261;46.086;6.588;2023-02-15T09:29:35;3.00;2.00;1.00
67376;PMS7003;54261;46.086;6.588;2023-02-15T09:34:37;3.25;3.25;2.50
67376;PMS7003;54261;46.086;6.588;2023-02-15T09:39:40;5.00;3.00;2.00
67376;PMS7003;54261;46.086;6.588;2023-02-15T10:17:09;6.50;6.50;5.25
67376;PMS7003;54261;46.086;6.588;2023-02-15T10:22:31;15.75;14.50;10.00
67376;PMS7003;54261;46.086;6.588;2023-02-15T10:27:44;19.75;15.75;11.50
67376;PMS7003;54261;46.086;6.588;2023-02-15T10:38:07;15.50;15.50;11.00
67376;PMS7003;54261;46.086;6.588;2023-02-15T10:43:29;21.75;20.00;16.00
67376;PMS7003;54261;46.086;6.588;2023-02-15T11:09:53;18.25;15.50;11.50
67376;PMS7003;54261;46.086;6.588;2023-02-15T11:15:04;14.75;13.25;11.00
67376;PMS7003;54261;46.086;6.588;2023-02-15T11:20:22;19.75;17.00;13.75
67376;PMS7003;54261;46.086;6.588;2023-02-15T11:25:32;17.25;14.50;11.50
67376;PMS7003;54261;46.086;6.588;2023-02-15T11:30:41;13.50;12.00;10.50
67376;PMS7003;54261;46.086;6.588;2023-02-15T11:35:51;14.00;14.00;10.25
67376;PMS7003;54261;46.086;6.588;2023-02-15T11:41:03;19.00;14.25;9.00
67376;PMS7003;54261;46.086;6.588;2023-02-15T11:46:07;15.25;13.00;11.25
67376;PMS7003;54261;46.086;6.588;2023-02-15T11:51:19;17.50;14.75;11.75
67376;PMS7003;54261;46.086;6.588;2023-02-15T11:56:25;16.25;15.00;11.25
67376;PMS7003;54261;46.086;6.588;2023-02-15T12:01:31;19.25;19.25;15.50
67376;PMS7003;54261;46.086;6.588;2023-02-15T12:06:37;23.50;19.25;14.75
67376;PMS7003;54261;46.086;6.588;2023-02-15T12:11:45;21.75;19.75;17.00
67376;PMS7003;54261;46.086;6.588;2023-02-15T12:16:51;18.25;18.25;14.25
67376;PMS7003;54261;46.086;6.588;2023-02-15T12:21:56;13.50;12.50;11.00
67376;PMS7003;54261;46.086;6.588;2023-02-15T12:27:10;18.75;15.25;10.75
67376;PMS7003;54261;46.086;6.588;2023-02-15T12:32:25;17.00;16.50;11.00
67376;PMS7003;54261;46.086;6.588;2023-02-15T12:37:30;15.50;15.00;11.75
67376;PMS7003;54261;46.086;6.588;2023-02-15T12:42:42;14.25;13.25;9.75
67376;PMS7003;54261;46.086;6.588;2023-02-15T12:47:46;22.75;22.00;16.00
67376;PMS7003;54261;46.086;6.588;2023-02-15T12:53:18;17.50;14.25;10.25
67376;PMS7003;54261;46.086;6.588;2023-02-15T12:58:25;14.00;10.75;9.00
67376;PMS7003;54261;46.086;6.588;2023-02-15T13:03:29;17.00;15.00;12.75
67376;PMS7003;54261;46.086;6.588;2023-02-15T13:08:31;19.00;16.50;11.25
67376;PMS7003;54261;46.086;6.588;2023-02-15T13:13:38;13.33;12.67;9.67
67376;PMS7003;54261;46.086;6.588;2023-02-15T13:18:53;17.67;16.67;11.33
67376;PMS7003;54261;46.086;6.588;2023-02-15T13:24:05;13.67;11.33;8.33
67376;PMS7003;54261;46.086;6.588;2023-02-15T13:29:29;14.67;13.00;10.33
67376;PMS7003;54261;46.086;6.588;2023-02-15T13:34:36;15.50;14.75;10.25
67376;PMS7003;54261;46.086;6.588;2023-02-15T13:39:46;13.75;12.25;10.00
67376;PMS7003;54261;46.086;6.588;2023-02-15T13:50:43;15.33;13.00;9.67
67376;PMS7003;54261;46.086;6.588;2023-02-15T13:55:57;12.67;11.67;9.00
67376;PMS7003;54261;46.086;6.588;2023-02-15T14:06:42;18.67;12.00;9.33
67376;PMS7003;54261;46.086;6.588;2023-02-15T14:16:59;12.33;10.33;8.00
67376;PMS7003;54261;46.086;6.588;2023-02-15T14:22:52;17.00;12.67;9.00
67376;PMS7003;54261;46.086;6.588;2023-02-15T14:32:56;15.67;14.33;11.00
67376;PMS7003;54261;46.086;6.588;2023-02-15T14:38:12;14.33;12.00;9.67
67376;PMS7003;54261;46.086;6.588;2023-02-15T14:48:55;16.33;14.00;10.00
67376;PMS7003;54261;46.086;6.588;2023-02-15T14:54:00;9.33;8.00;5.33
67376;PMS7003;54261;46.086;6.588;2023-02-15T14:59:14;17.00;14.67;11.00
67376;PMS7003;54261;46.086;6.588;2023-02-15T15:04:42;14.33;13.00;10.00
67376;PMS7003;54261;46.086;6.588;2023-02-15T15:09:45;13.00;10.33;9.00
67376;PMS7003;54261;46.086;6.588;2023-02-15T15:14:50;13.25;13.25;9.50
67376;PMS7003;54261;46.086;6.588;2023-02-15T15:24:56;14.33;13.00;11.00
67376;PMS7003;54261;46.086;6.588;2023-02-15T15:30:02;15.00;14.33;11.00
67376;PMS7003;54261;46.086;6.588;2023-02-15T15:35:33;14.00;13.00;10.67
67376;PMS7003;54261;46.086;6.588;2023-02-15T15:51:47;10.67;8.67;8.00
67376;PMS7003;54261;46.086;6.588;2023-02-15T15:56:51;11.33;9.67;7.00
67376;PMS7003;54261;46.086;6.588;2023-02-15T16:02:04;12.33;9.33;7.00
67376;PMS7003;54261;46.086;6.588;2023-02-15T16:07:34;10.33;10.33;7.33
67376;PMS7003;54261;46.086;6.588;2023-02-15T16:12:35;12.00;12.00;10.00
67376;PMS7003;54261;46.086;6.588;2023-02-15T16:17:40;12.67;12.00;9.00
67376;PMS7003;54261;46.086;6.588;2023-02-15T16:22:45;12.00;12.00;8.00
67376;PMS7003;54261;46.086;6.588;2023-02-15T16:27:49;9.67;9.33;8.33
67376;PMS7003;54261;46.086;6.588;2023-02-15T16:38:09;13.67;12.00;9.00
67376;PMS7003;54261;46.086;6.588;2023-02-15T16:43:16;10.67;9.00;7.33
67376;PMS7003;54261;46.086;6.588;2023-02-15T16:48:24;10.33;9.67;7.00
67376;PMS7003;54261;46.086;6.588;2023-02-15T16:53:29;9.33;7.33;5.33
67376;PMS7003;54261;46.086;6.588;2023-02-15T16:58:38;8.67;7.00;6.33
67376;PMS7003;54261;46.086;6.588;2023-02-15T17:03:45;12.25;11.00;9.00
67376;PMS7003;54261;46.086;6.588;2023-02-15T17:08:50;12.50;12.50;10.00
67376;PMS7003;54261;46.086;6.588;2023-02-15T17:19:14;11.50;10.75;8.00
67376;PMS7003;54261;46.086;6.588;2023-02-15T17:24:21;11.25;9.50;6.25
67376;PMS7003;54261;46.086;6.588;2023-02-15T17:29:34;11.25;11.25;8.75
67376;PMS7003;54261;46.086;6.588;2023-02-15T17:34:50;11.00;11.00;5.75
67376;PMS7003;54261;46.086;6.588;2023-02-15T17:39:59;9.50;9.00;7.00
67376;PMS7003;54261;46.086;6.588;2023-02-15T17:45:01;11.50;9.00;8.00
67376;PMS7003;54261;46.086;6.588;2023-02-15T17:50:04;10.00;8.00;6.75
67376;PMS7003;54261;46.086;6.588;2023-02-15T17:55:11;10.00;9.50;7.50
67376;PMS7003;54261;46.086;6.588;2023-02-15T18:00:35;10.00;9.00;6.50
67376;PMS7003;54261;46.086;6.588;2023-02-15T18:06:02;11.00;10.00;8.25
67376;PMS7003;54261;46.086;6.588;2023-02-15T18:11:22;9.00;9.00;5.50
67376;PMS7003;54261;46.086;6.588;2023-02-15T18:16:40;6.75;6.75;5.00
67376;PMS7003;54261;46.086;6.588;2023-02-15T18:21:44;15.00;14.00;9.25
67376;PMS7003;54261;46.086;6.588;2023-02-15T18:26:47;18.00;17.00;13.00
67376;PMS7003;54261;46.086;6.588;2023-02-15T18:31:51;19.25;14.50;10.75
67376;PMS7003;54261;46.086;6.588;2023-02-15T18:36:56;9.00;9.00;8.50
67376;PMS7003;54261;46.086;6.588;2023-02-15T18:41:59;12.50;12.50;8.25
67376;PMS7003;54261;46.086;6.588;2023-02-15T18:47:01;11.75;8.50;7.00
67376;PMS7003;54261;46.086;6.588;2023-02-15T18:52:03;14.00;13.75;8.75
67376;PMS7003;54261;46.086;6.588;2023-02-15T18:57:08;21.25;18.50;13.00
67376;PMS7003;54261;46.086;6.588;2023-02-15T19:02:15;16.75;14.25;11.50
67376;PMS7003;54261;46.086;6.588;2023-02-15T19:07:20;16.75;13.50;8.50
67376;PMS7003;54261;46.086;6.588;2023-02-15T19:12:24;28.50;27.00;18.25
67376;PMS7003;54261;46.086;6.588;2023-02-15T19:17:27;22.00;18.50;12.50
67376;PMS7003;54261;46.086;6.588;2023-02-15T19:22:29;18.00;15.50;10.00
67376;PMS7003;54261;46.086;6.588;2023-02-15T19:27:33;16.25;14.00;10.25
67376;PMS7003;54261;46.086;6.588;2023-02-15T19:32:36;31.25;27.50;20.50
67376;PMS7003;54261;46.086;6.588;2023-02-15T19:37:38;20.25;13.00;11.00
67376;PMS7003;54261;46.086;6.588;2023-02-15T19:42:43;13.00;12.00;9.00
67376;PMS7003;54261;46.086;6.588;2023-02-15T19:47:45;14.25;12.50;9.25
67376;PMS7003;54261;46.086;6.588;2023-02-15T19:52:48;18.00;18.00;12.00
67376;PMS7003;54261;46.086;6.588;2023-02-15T19:57:51;15.00;13.75;9.25
67376;PMS7003;54261;46.086;6.588;2023-02-15T20:02:54;29.00;27.75;21.00
67376;PMS7003;54261;46.086;6.588;2023-02-15T20:07:58;20.00;17.00;12.50
67376;PMS7003;54261;46.086;6.588;2023-02-15T20:13:04;12.00;12.00;9.25
67376;PMS7003;54261;46.086;6.588;2023-02-15T20:18:06;14.50;14.50;12.00
67376;PMS7003;54261;46.086;6.588;2023-02-15T20:23:13;14.75;14.75;9.75
67376;PMS7003;54261;46.086;6.588;2023-02-15T20:28:21;16.00;16.00;12.00
67376;PMS7003;54261;46.086;6.588;2023-02-15T20:33:25;21.50;19.75;16.00
67376;PMS7003;54261;46.086;6.588;2023-02-15T20:38:30;11.75;11.00;7.75
67376;PMS7003;54261;46.086;6.588;2023-02-15T20:43:33;13.00;11.25;8.00
67376;PMS7003;54261;46.086;6.588;2023-02-15T20:48:35;10.50;9.00;7.00
67376;PMS7003;54261;46.086;6.588;2023-02-15T20:53:38;9.50;7.00;6.00
67376;PMS7003;54261;46.086;6.588;2023-02-15T20:58:40;9.50;9.00;7.00
67376;PMS7003;54261;46.086;6.588;2023-02-15T21:03:42;6.50;6.25;3.00
67376;PMS7003;54261;46.086;6.588;2023-02-15T21:08:44;6.00;4.25;3.00
67376;PMS7003;54261;46.086;6.588;2023-02-15T21:13:47;8.50;7.00;6.00
67376;PMS7003;54261;46.086;6.588;2023-02-15T21:18:50;6.25;6.00;4.00
67376;PMS7003;54261;46.086;6.588;2023-02-15T21:23:51;6.00;6.00;5.00
67376;PMS7003;54261;46.086;6.588;2023-02-15T21:28:54;8.50;7.25;6.00
67376;PMS7003;54261;46.086;6.588;2023-02-15T21:33:57;8.75;6.50;4.25
67376;PMS7003;54261;46.086;6.588;2023-02-15T21:38:58;7.50;6.25;5.75
67376;PMS7003;54261;46.086;6.588;2023-02-15T21:44:01;8.00;6.25;5.00
67376;PMS7003;54261;46.086;6.588;2023-02-15T21:49:21;5.00;5.00;5.00
67376;PMS7003;54261;46.086;6.588;2023-02-15T21:54:24;8.75;8.75;7.00
67376;PMS7003;54261;46.086;6.588;2023-02-15T21:59:26;11.25;11.00;8.00
67376;PMS7003;54261;46.086;6.588;2023-02-15T22:04:29;8.50;6.50;5.50
67376;PMS7003;54261;46.086;6.588;2023-02-15T22:09:36;3.00;3.00;2.00
67376;PMS7003;54261;46.086;6.588;2023-02-15T22:14:39;6.00;4.00;3.00
67376;PMS7003;54261;46.086;6.588;2023-02-15T22:19:42;5.00;5.00;2.25
67376;PMS7003;54261;46.086;6.588;2023-02-15T22:24:45;2.50;2.50;2.00
67376;PMS7003;54261;46.086;6.588;2023-02-15T22:29:48;5.00;3.00;2.00
67376;PMS7003;54261;46.086;6.588;2023-02-15T22:34:50;5.25;5.00;3.00
67376;PMS7003;54261;46.086;6.588;2023-02-15T22:39:52;3.50;3.50;3.00
67376;PMS7003;54261;46.086;6.588;2023-02-15T22:44:55;7.75;5.25;3.00
67376;PMS7003;54261;46.086;6.588;2023-02-15T22:49:58;13.50;11.25;8.50
67376;PMS7003;54261;46.086;6.588;2023-02-15T22:55:00;11.25;9.00;6.00
67376;PMS7003;54261;46.086;6.588;2023-02-15T23:00:03;1.25;1.25;1.25
67376;PMS7003;54261;46.086;6.588;2023-02-15T23:05:13;5.00;5.00;2.00
67376;PMS7003;54261;46.086;6.588;2023-02-15T23:10:18;5.75;3.00;2.00
67376;PMS7003;54261;46.086;6.588;2023-02-15T23:15:22;4.50;4.50;2.00
67376;PMS7003;54261;46.086;6.588;2023-02-15T23:20:24;6.25;5.00;2.75
67376;PMS7003;54261;46.086;6.588;2023-02-15T23:25:26;3.50;3.50;2.00
67376;PMS7003;54261;46.086;6.588;2023-02-15T23:30:28;5.50;5.50;3.00
67376;PMS7003;54261;46.086;6.588;2023-02-15T23:35:30;7.50;7.25;5.25
67376;PMS7003;54261;46.086;6.588;2023-02-15T23:40:32;7.00;6.50;4.00
67376;PMS7003;54261;46.086;6.588;2023-02-15T23:45:52;7.50;6.75;5.00
67376;PMS7003;54261;46.086;6.588;2023-02-15T23:50:55;10.50;10.50;6.00
67376;PMS7003;54261;46.086;6.588;2023-02-15T23:55:57;7.75;7.00;6.00
